createdAt,value
2023-04-30T00:00:20.670Z,80.1948
2023-04-30T00:01:21.062Z,80.3472
2023-04-30T00:02:23.099Z,80.4421
2023-04-30T00:03:31.326Z,80.4370
2023-04-30T00:04:32.160Z,80.5803
2023-04-30T00:05:33.135Z,80.6215
2023-04-30T00:06:33.809Z,80.9850
2023-04-30T00:07:34.672Z,80.3743
2023-04-30T00:08:37.104Z,80.5554
2023-04-30T00:09:36.517Z,80.7751
2023-04-30T00:10:37.077Z,81.0415
2023-04-30T00:11:37.646Z,81.3465
2023-04-30T00:12:37.934Z,81.3740
2023-04-30T00:13:38.439Z,81.4244
2023-04-30T00:14:39.051Z,81.5857
2023-04-30T00:15:39.449Z,81.5823
2023-04-30T00:16:40.135Z,81.4152
2023-04-30T00:17:40.743Z,81.4012
2023-04-30T00:18:41.577Z,81.5067
2023-04-30T00:19:42.067Z,81.6255
2023-04-30T00:20:42.539Z,81.6334
2023-04-30T00:21:43.074Z,82.1204
2023-04-30T00:22:43.640Z,82.4163
2023-04-30T00:23:44.335Z,82.5701
2023-04-30T00:24:44.832Z,82.8078
2023-04-30T00:25:45.230Z,82.7952
2023-04-30T00:26:45.742Z,83.0542
2023-04-30T00:27:46.251Z,82.9459
2023-04-30T00:28:46.664Z,83.1479
2023-04-30T00:29:47.878Z,82.9263
2023-04-30T00:30:48.843Z,83.0982
2023-04-30T00:31:49.975Z,83.1152
2023-04-30T00:32:51.146Z,83.0784
2023-04-30T00:33:51.773Z,83.3604
2023-04-30T00:34:52.434Z,83.8639
2023-04-30T00:35:55.733Z,83.8522
2023-04-30T00:37:54.616Z,84.3506
2023-04-30T00:38:55.258Z,84.4067
2023-04-30T00:39:55.829Z,84.0029
2023-04-30T00:40:56.266Z,83.6340
2023-04-30T00:41:56.876Z,83.6897
2023-04-30T00:42:57.253Z,83.6676
2023-04-30T00:43:57.864Z,83.6390
2023-04-30T00:44:59.155Z,84.0096
2023-04-30T00:46:01.310Z,84.4423
2023-04-30T00:47:03.063Z,84.6731
2023-04-30T00:48:04.656Z,84.8121
2023-04-30T00:49:04.937Z,85.0011
2023-04-30T00:50:05.393Z,84.8620
2023-04-30T00:51:06.665Z,84.9972
2023-04-30T00:52:07.002Z,85.1472
2023-04-30T00:53:08.178Z,85.1579
2023-04-30T00:54:09.801Z,85.6046
2023-04-30T00:56:10.930Z,85.4941
2023-04-30T00:57:11.278Z,85.5801
2023-04-30T00:58:12.964Z,85.2832
2023-04-30T01:00:13.936Z,85.4619
2023-04-30T01:01:14.309Z,85.7194
2023-04-30T01:02:15.626Z,85.4044
2023-04-30T01:06:19.466Z,85.2029
2023-04-30T01:08:20.378Z,85.1708
2023-04-30T01:09:20.477Z,85.1456
2023-04-30T01:11:21.382Z,85.3834
2023-04-30T01:12:21.528Z,85.4389
2023-04-30T01:13:21.965Z,85.2523
2023-04-30T01:14:23.966Z,85.1842
2023-04-30T01:21:32.355Z,84.1163
2023-04-30T01:22:34.410Z,84.2634
2023-04-30T01:23:36.173Z,84.3421
2023-04-30T01:24:36.190Z,84.3709
2023-04-30T01:25:37.518Z,84.5194
2023-04-30T01:30:44.009Z,84.5646
2023-04-30T01:31:45.865Z,84.4413
2023-04-30T01:32:46.810Z,84.7865
2023-04-30T01:33:47.628Z,84.9000
2023-04-30T01:34:49.058Z,84.8362
2023-04-30T01:35:49.427Z,84.8733
2023-04-30T01:36:49.661Z,84.7455
2023-04-30T01:37:51.590Z,84.9163
2023-04-30T01:38:53.700Z,84.6178
2023-04-30T01:39:55.480Z,84.5945
2023-04-30T01:40:56.500Z,84.5322
2023-04-30T01:41:58.491Z,84.6547
2023-04-30T01:46:00.958Z,84.0677
2023-04-30T01:47:01.614Z,84.0947
2023-04-30T01:48:02.032Z,83.7868
2023-04-30T01:49:02.010Z,83.8477
2023-04-30T01:50:03.041Z,83.7211
2023-04-30T01:51:04.790Z,84.1197
2023-04-30T01:52:06.193Z,84.0456
2023-04-30T01:53:06.769Z,84.1634
2023-04-30T01:54:07.374Z,84.1900
2023-04-30T01:55:08.575Z,84.0464
2023-04-30T01:57:10.834Z,84.4051
2023-04-30T01:58:11.165Z,84.4899
2023-04-30T02:01:13.907Z,84.6413
2023-04-30T02:02:14.199Z,84.7623
2023-04-30T02:03:15.578Z,84.5364
2023-04-30T02:04:15.953Z,84.6160
2023-04-30T02:05:16.452Z,84.7017
2023-04-30T02:06:16.782Z,84.6067
2023-04-30T02:07:17.623Z,84.4456
2023-04-30T02:08:18.123Z,84.6547
2023-04-30T02:09:18.610Z,84.8969
2023-04-30T02:10:19.530Z,84.8437
2023-04-30T02:11:20.001Z,85.0156
2023-04-30T02:12:20.568Z,85.1678
2023-04-30T02:13:21.333Z,85.2232
2023-04-30T02:14:22.590Z,85.0664
2023-04-30T02:15:23.172Z,84.7343
2023-04-30T02:16:24.090Z,84.5159
2023-04-30T02:17:24.661Z,84.8447
2023-04-30T02:18:25.868Z,84.6337
2023-04-30T02:19:26.436Z,84.6793
2023-04-30T02:20:26.881Z,85.0303
2023-04-30T02:21:27.019Z,84.9379
2023-04-30T02:22:28.643Z,84.9875
2023-04-30T02:24:29.554Z,84.7927
2023-04-30T02:25:29.594Z,84.6926
2023-04-30T02:26:30.322Z,84.6982
2023-04-30T02:27:30.871Z,84.9707
2023-04-30T02:28:31.640Z,85.0920
2023-04-30T02:29:32.873Z,84.8089
2023-04-30T02:30:33.522Z,84.9175
2023-04-30T02:31:34.334Z,84.7701
2023-04-30T02:32:35.398Z,84.6740
2023-04-30T02:33:35.997Z,84.7494
2023-04-30T02:34:36.519Z,84.6518
2023-04-30T02:35:37.168Z,84.5448
2023-04-30T02:36:37.464Z,84.7171
2023-04-30T02:37:38.035Z,84.8001
2023-04-30T02:38:38.352Z,84.8583
2023-04-30T02:39:38.945Z,84.9955
2023-04-30T02:40:39.196Z,84.7232
2023-04-30T02:41:39.566Z,84.8568
2023-04-30T02:42:40.195Z,85.1335
2023-04-30T02:43:40.687Z,85.2681
2023-04-30T02:44:41.039Z,85.1932
2023-04-30T02:45:41.772Z,85.3233
2023-04-30T02:46:42.650Z,85.0899
2023-04-30T02:47:43.331Z,85.1767
2023-04-30T02:48:43.982Z,85.3223
2023-04-30T02:49:44.428Z,85.2354
2023-04-30T02:50:45.645Z,85.4114
2023-04-30T02:51:46.366Z,85.4058
2023-04-30T02:52:46.682Z,85.2101
2023-04-30T02:53:47.233Z,85.3619
2023-04-30T02:54:47.800Z,85.3485
2023-04-30T02:55:48.284Z,85.3093
2023-04-30T02:56:48.892Z,85.1423
2023-04-30T02:57:49.355Z,85.1523
2023-04-30T02:58:49.882Z,85.0835
2023-04-30T02:59:50.462Z,84.9630
2023-04-30T03:00:50.892Z,84.9583
2023-04-30T03:01:51.984Z,84.9043
2023-04-30T03:02:53.083Z,84.6430
2023-04-30T03:03:54.160Z,84.3453
2023-04-30T03:04:54.718Z,84.6307
2023-04-30T03:05:55.466Z,84.5951
2023-04-30T03:06:56.072Z,84.5369
2023-04-30T03:07:56.659Z,84.2928
2023-04-30T03:08:57.274Z,84.2669
2023-04-30T03:09:57.629Z,84.6002
2023-04-30T03:10:58.125Z,84.4811
2023-04-30T03:11:58.596Z,84.4791
2023-04-30T03:12:59.166Z,84.0471
2023-04-30T03:13:59.719Z,84.1171
2023-04-30T03:15:00.148Z,84.1502
2023-04-30T03:16:00.798Z,84.3924
2023-04-30T03:17:01.552Z,83.9508
2023-04-30T03:18:01.634Z,83.9134
2023-04-30T03:19:02.204Z,83.9627
2023-04-30T03:20:03.087Z,84.0679
2023-04-30T03:21:03.716Z,84.5005
2023-04-30T03:22:04.277Z,84.6657
2023-04-30T03:23:04.647Z,84.2587
2023-04-30T03:24:05.248Z,84.1126
2023-04-30T03:25:05.689Z,84.1840
2023-04-30T03:26:06.164Z,84.1623
2023-04-30T03:27:06.921Z,84.3337
2023-04-30T03:28:07.810Z,84.6722
2023-04-30T03:29:08.464Z,84.2635
2023-04-30T03:30:09.582Z,84.3736
2023-04-30T03:31:10.137Z,84.1422
2023-04-30T03:32:11.060Z,84.2512
2023-04-30T03:33:12.025Z,84.1764
2023-04-30T03:34:12.881Z,83.9383
2023-04-30T03:35:13.386Z,83.9953
2023-04-30T03:36:13.871Z,84.3432
2023-04-30T03:37:14.421Z,84.1646
2023-04-30T03:38:15.075Z,84.2434
2023-04-30T03:39:15.542Z,84.0775
2023-04-30T03:40:16.170Z,84.2531
2023-04-30T03:41:16.754Z,84.3349
2023-04-30T03:42:17.241Z,83.9137
2023-04-30T03:43:17.424Z,84.0588
2023-04-30T03:44:18.160Z,84.2119
2023-04-30T03:45:18.521Z,84.4979
2023-04-30T03:46:18.555Z,84.3987
2023-04-30T03:47:19.633Z,83.9886
2023-04-30T03:48:20.743Z,83.5302
2023-04-30T03:49:21.311Z,83.8049
2023-04-30T03:50:21.697Z,83.9252
2023-04-30T03:51:22.240Z,84.3283
2023-04-30T03:52:23.074Z,84.1404
2023-04-30T03:53:23.500Z,84.0741
2023-04-30T03:54:24.043Z,84.3498
2023-04-30T03:55:24.587Z,84.7388
2023-04-30T03:56:25.031Z,84.3840
2023-04-30T03:57:25.703Z,84.2232
2023-04-30T03:58:26.038Z,84.3634
2023-04-30T03:59:26.605Z,84.6031
2023-04-30T04:00:27.568Z,84.2725
2023-04-30T04:01:28.035Z,84.3592
2023-04-30T04:02:29.283Z,83.9718
2023-04-30T04:03:30.225Z,84.3025
2023-04-30T04:04:31.340Z,84.3378
2023-04-30T04:05:31.864Z,84.3889
2023-04-30T04:06:33.068Z,84.4931
2023-04-30T04:07:33.545Z,84.5613
2023-04-30T04:08:34.081Z,84.6762
2023-04-30T04:09:34.637Z,84.5480
2023-04-30T04:10:35.087Z,84.5952
2023-04-30T04:11:35.731Z,84.7816
2023-04-30T04:12:36.256Z,84.3320
2023-04-30T04:13:36.827Z,84.1515
2023-04-30T04:14:37.399Z,84.5471
2023-04-30T04:15:37.845Z,84.4962
2023-04-30T04:16:39.164Z,84.1274
2023-04-30T04:17:40.072Z,84.3865
2023-04-30T04:18:40.648Z,84.4084
2023-04-30T04:19:41.307Z,84.2745
2023-04-30T04:20:42.407Z,84.0712
2023-04-30T04:21:42.790Z,84.5012
2023-04-30T04:22:43.402Z,84.7378
2023-04-30T04:23:43.977Z,84.9474
2023-04-30T04:24:44.320Z,84.9128
2023-04-30T04:25:44.938Z,84.9854
2023-04-30T04:26:47.881Z,84.8705
2023-04-30T04:27:46.322Z,85.0841
2023-04-30T04:28:46.949Z,85.0679
2023-04-30T04:29:47.485Z,84.8011
2023-04-30T04:30:48.058Z,85.0600
2023-04-30T04:31:48.878Z,84.6486
2023-04-30T04:32:49.569Z,84.4185
2023-04-30T04:33:50.254Z,84.2741
2023-04-30T04:34:50.955Z,84.4618
2023-04-30T04:35:51.478Z,84.7206
2023-04-30T04:36:52.098Z,84.7993
2023-04-30T04:37:52.685Z,84.5774
2023-04-30T04:38:53.320Z,84.7661
2023-04-30T04:39:54.495Z,84.6623
2023-04-30T04:40:55.050Z,84.8448
2023-04-30T04:41:55.708Z,84.5672
2023-04-30T04:42:56.284Z,84.5900
2023-04-30T04:43:56.951Z,84.5977
2023-04-30T04:44:57.575Z,84.5724
2023-04-30T04:45:58.147Z,84.5350
2023-04-30T04:46:58.976Z,84.5705
2023-04-30T04:47:59.691Z,84.6490
2023-04-30T04:49:00.126Z,84.6910
2023-04-30T04:50:01.394Z,84.8479
2023-04-30T04:51:01.967Z,84.9829
2023-04-30T04:52:02.366Z,84.5408
2023-04-30T04:53:02.956Z,84.5981
2023-04-30T04:54:03.459Z,84.6421
2023-04-30T04:55:03.973Z,84.7248
2023-04-30T04:56:04.764Z,84.8072
2023-04-30T04:57:05.193Z,85.0616
2023-04-30T04:58:05.789Z,84.8397
2023-04-30T04:59:06.382Z,84.7373
2023-04-30T05:00:08.021Z,84.8852
2023-04-30T05:01:08.596Z,84.9324
2023-04-30T05:02:09.645Z,84.5811
2023-04-30T05:03:10.735Z,84.7819
2023-04-30T05:04:11.622Z,84.6107
2023-04-30T05:05:12.281Z,84.7724
2023-04-30T05:06:12.798Z,84.7218
2023-04-30T05:07:13.927Z,84.5499
2023-04-30T05:08:14.524Z,84.4485
2023-04-30T05:09:15.003Z,84.7129
2023-04-30T05:10:15.574Z,84.6667
2023-04-30T05:11:16.421Z,84.5604
2023-04-30T05:12:16.859Z,84.6130
2023-04-30T05:13:17.502Z,84.4481
2023-04-30T05:14:17.881Z,84.3344
2023-04-30T05:15:18.516Z,84.3385
2023-04-30T05:16:19.577Z,84.3819
2023-04-30T05:17:20.218Z,84.0489
2023-04-30T05:18:21.116Z,84.0057
2023-04-30T05:19:21.859Z,84.0051
2023-04-30T05:20:22.178Z,83.7553
2023-04-30T05:21:22.897Z,83.6111
2023-04-30T05:22:23.556Z,83.3836
2023-04-30T05:23:23.972Z,83.3099
2023-04-30T05:24:24.596Z,84.0704
2023-04-30T05:25:26.944Z,83.4555
2023-04-30T05:29:28.149Z,84.1699
2023-04-30T05:30:28.247Z,83.7290
2023-04-30T05:31:29.623Z,83.8135
2023-04-30T05:32:30.369Z,83.5875
2023-04-30T05:33:31.313Z,83.8361
2023-04-30T05:34:31.753Z,83.2717
2023-04-30T05:35:32.351Z,82.9723
2023-04-30T05:36:32.966Z,83.3641
2023-04-30T05:37:33.702Z,83.4194
2023-04-30T05:38:34.668Z,82.8316
2023-04-30T05:39:34.911Z,82.4611
2023-04-30T05:40:34.800Z,83.0399
2023-04-30T05:41:35.305Z,83.0512
2023-04-30T05:42:35.397Z,82.9565
2023-04-30T05:43:36.205Z,83.0795
2023-04-30T05:44:37.639Z,83.1321
2023-04-30T05:45:38.157Z,83.0064
2023-04-30T05:46:38.944Z,82.7394
2023-04-30T05:47:39.935Z,82.5126
2023-04-30T05:48:40.598Z,82.8445
2023-04-30T05:49:40.647Z,83.0478
2023-04-30T05:50:41.927Z,82.7728
2023-04-30T05:51:42.714Z,83.1500
2023-04-30T05:52:43.517Z,83.0035
2023-04-30T05:53:43.568Z,82.6149
2023-04-30T05:54:44.235Z,82.6774
2023-04-30T05:55:44.711Z,82.9193
2023-04-30T05:56:45.505Z,82.9924
2023-04-30T05:57:45.962Z,82.7769
2023-04-30T05:58:46.631Z,82.9949
2023-04-30T05:59:47.274Z,83.1562
2023-04-30T06:00:48.375Z,82.9246
2023-04-30T06:01:48.934Z,82.6814
2023-04-30T06:02:49.207Z,82.8591
2023-04-30T06:03:49.677Z,82.8590
2023-04-30T06:04:50.429Z,82.8048
2023-04-30T06:05:51.433Z,82.8166
2023-04-30T06:06:51.727Z,82.7896
2023-04-30T06:07:52.319Z,82.8437
2023-04-30T06:08:52.727Z,83.1411
2023-04-30T06:09:53.561Z,82.9677
2023-04-30T06:10:54.289Z,82.5032
2023-04-30T06:11:54.713Z,82.1841
2023-04-30T06:12:55.221Z,82.2796
2023-04-30T06:13:55.828Z,82.3676
2023-04-30T06:14:56.229Z,82.4800
2023-04-30T06:15:56.877Z,82.7028
2023-04-30T06:16:57.596Z,82.7292
2023-04-30T06:17:58.699Z,82.8464
2023-04-30T06:18:59.450Z,82.9068
2023-04-30T06:19:59.787Z,82.2107
2023-04-30T06:21:00.549Z,82.5664
2023-04-30T06:22:01.723Z,82.5590
2023-04-30T06:23:15.367Z,82.7646
2023-04-30T06:24:34.871Z,82.3196
2023-04-30T06:25:16.725Z,82.5138
2023-04-30T06:26:17.273Z,82.8000
2023-04-30T06:27:17.791Z,82.7084
2023-04-30T06:28:18.661Z,82.7312
2023-04-30T06:29:19.374Z,82.8291
2023-04-30T06:30:20.097Z,82.5346
2023-04-30T06:31:20.898Z,82.8085
2023-04-30T06:32:21.562Z,82.9449
2023-04-30T06:33:22.351Z,82.9855
2023-04-30T06:34:22.954Z,82.6180
2023-04-30T06:35:23.402Z,82.1256
2023-04-30T06:36:24.133Z,82.3329
2023-04-30T06:37:25.362Z,82.2517
2023-04-30T06:38:26.361Z,82.5813
2023-04-30T06:39:27.007Z,82.4872
2023-04-30T06:40:27.637Z,81.8150
2023-04-30T06:41:28.651Z,81.7721
2023-04-30T06:42:29.021Z,81.7341
2023-04-30T06:43:29.723Z,81.5560
2023-04-30T06:44:29.810Z,81.4466
2023-04-30T06:45:30.376Z,81.8981
2023-04-30T06:46:31.582Z,81.9197
2023-04-30T06:47:31.449Z,81.4502
2023-04-30T06:48:32.508Z,81.6565
2023-04-30T06:49:33.121Z,81.5698
2023-04-30T06:50:33.729Z,81.8169
2023-04-30T06:51:34.157Z,81.8595
2023-04-30T06:52:34.665Z,81.5928
2023-04-30T06:53:35.212Z,81.8300
2023-04-30T06:54:35.568Z,81.4587
2023-04-30T06:55:36.164Z,81.1375
2023-04-30T06:56:37.086Z,81.3940
2023-04-30T06:57:37.672Z,80.9588
2023-04-30T06:58:38.216Z,80.9640
2023-04-30T06:59:38.682Z,81.0714
2023-04-30T07:00:39.217Z,81.4221
2023-04-30T07:01:39.939Z,80.8004
2023-04-30T07:02:40.172Z,81.1573
2023-04-30T07:03:41.003Z,81.2458
2023-04-30T07:04:42.224Z,80.6453
2023-04-30T07:05:42.662Z,80.9136
2023-04-30T07:06:43.646Z,80.8311
2023-04-30T07:07:44.123Z,81.0609
2023-04-30T07:08:45.728Z,81.2440
2023-04-30T07:09:46.304Z,80.4341
2023-04-30T07:10:46.834Z,80.4075
2023-04-30T07:11:47.446Z,80.3108
2023-04-30T07:12:48.030Z,80.5353
2023-04-30T07:13:48.434Z,80.5052
2023-04-30T07:14:49.098Z,80.5170
2023-04-30T07:15:49.551Z,80.2886
2023-04-30T07:16:50.279Z,80.1750
2023-04-30T07:17:50.892Z,80.0816
2023-04-30T07:18:51.481Z,79.9803
2023-04-30T07:19:52.300Z,79.5749
2023-04-30T07:20:53.561Z,79.4466
2023-04-30T07:21:54.638Z,79.4702
2023-04-30T07:22:55.229Z,78.8010
2023-04-30T07:23:55.564Z,78.8748
2023-04-30T07:24:56.038Z,78.7438
2023-04-30T07:25:56.671Z,78.1410
2023-04-30T07:26:57.104Z,77.6270
2023-04-30T07:27:57.664Z,77.7036
2023-04-30T07:28:58.216Z,78.0073
2023-04-30T07:29:58.694Z,78.3837
2023-04-30T07:30:59.078Z,78.2502
2023-04-30T07:31:59.704Z,78.1427
2023-04-30T07:33:00.536Z,78.2414
2023-04-30T07:34:01.280Z,78.6010
2023-04-30T07:35:01.641Z,78.6985
2023-04-30T07:36:02.183Z,78.5787
2023-04-30T07:37:02.765Z,78.6065
2023-04-30T07:38:03.341Z,78.9035
2023-04-30T07:39:03.851Z,78.6075
2023-04-30T07:40:04.809Z,79.0021
2023-04-30T07:41:05.186Z,79.0732
2023-04-30T07:42:05.815Z,79.1861
2023-04-30T07:43:06.290Z,78.8708
2023-04-30T07:44:06.876Z,78.7281
2023-04-30T07:45:07.446Z,79.0549
2023-04-30T07:46:07.983Z,79.0921
2023-04-30T07:47:09.005Z,78.8134
2023-04-30T07:48:09.921Z,78.4347
2023-04-30T07:49:10.841Z,78.3777
2023-04-30T07:50:11.420Z,77.8971
2023-04-30T07:51:12.096Z,78.0948
2023-04-30T07:52:12.843Z,77.8640
2023-04-30T07:53:13.479Z,77.7850
2023-04-30T07:54:14.364Z,77.6719
2023-04-30T07:55:14.929Z,77.8238
2023-04-30T07:56:15.510Z,77.8941
2023-04-30T07:57:15.994Z,78.1443
2023-04-30T07:58:16.521Z,77.8995
2023-04-30T07:59:17.077Z,77.1491
2023-04-30T08:00:17.767Z,77.3930
2023-04-30T08:01:18.460Z,77.3233
2023-04-30T08:02:19.229Z,77.4062
2023-04-30T08:03:20.226Z,77.5693
2023-04-30T08:04:20.530Z,77.0057
2023-04-30T08:05:21.431Z,76.9213
2023-04-30T08:06:22.115Z,76.6565
2023-04-30T08:07:22.847Z,76.7975
2023-04-30T08:08:23.422Z,76.3599
2023-04-30T08:09:24.337Z,77.1653
2023-04-30T08:10:25.210Z,76.9972
2023-04-30T08:11:25.802Z,77.3163
2023-04-30T08:12:26.378Z,76.5030
2023-04-30T08:13:26.812Z,76.7600
2023-04-30T08:14:27.398Z,76.8306
2023-04-30T08:15:28.863Z,76.9322
2023-04-30T08:16:28.733Z,76.3902
2023-04-30T08:17:29.907Z,76.6785
2023-04-30T08:18:30.532Z,76.1641
2023-04-30T08:19:31.190Z,76.3058
2023-04-30T08:20:32.170Z,76.1242
2023-04-30T08:21:32.570Z,76.3221
2023-04-30T08:22:33.193Z,76.6133
2023-04-30T08:23:33.846Z,76.4397
2023-04-30T08:24:34.485Z,76.1735
2023-04-30T08:25:35.237Z,76.1950
2023-04-30T08:26:35.550Z,75.8883
2023-04-30T08:27:36.172Z,75.8999
2023-04-30T08:28:36.868Z,75.3154
2023-04-30T08:29:37.251Z,74.8914
2023-04-30T08:30:37.955Z,75.4533
2023-04-30T08:31:38.668Z,75.6419
2023-04-30T08:32:39.843Z,75.1568
2023-04-30T08:33:39.925Z,75.5064
2023-04-30T08:34:40.445Z,76.3573
2023-04-30T08:35:40.545Z,76.2284
2023-04-30T08:36:41.016Z,76.2914
2023-04-30T08:37:41.682Z,76.1847
2023-04-30T08:38:42.373Z,75.2725
2023-04-30T08:39:42.783Z,74.8787
2023-04-30T08:40:51.428Z,75.8735
2023-04-30T08:41:44.574Z,75.7845
2023-04-30T08:42:45.165Z,75.8400
2023-04-30T08:43:46.387Z,75.5464
2023-04-30T08:44:47.491Z,75.5252
2023-04-30T08:45:48.297Z,75.3660
2023-04-30T08:46:48.865Z,75.2376
2023-04-30T08:47:49.118Z,75.4761
2023-04-30T08:49:50.040Z,75.3074
2023-04-30T08:50:50.728Z,74.8637
2023-04-30T08:51:51.391Z,75.2157
2023-04-30T08:52:52.168Z,74.2644
2023-04-30T08:53:53.101Z,74.7656
2023-04-30T08:54:53.606Z,74.8348
2023-04-30T08:55:54.281Z,75.2172
2023-04-30T08:56:54.856Z,75.2197
2023-04-30T08:57:55.254Z,75.1917
2023-04-30T08:58:56.085Z,75.3239
2023-04-30T08:59:56.751Z,75.3904
2023-04-30T09:00:56.958Z,75.8342
2023-04-30T09:01:58.066Z,75.5938
2023-04-30T09:02:59.182Z,75.8242
2023-04-30T09:03:59.588Z,76.0854
2023-04-30T09:05:00.844Z,75.4011
2023-04-30T09:06:01.411Z,74.9263
2023-04-30T09:07:04.453Z,75.6200
2023-04-30T09:08:06.417Z,75.4765
2023-04-30T09:09:07.338Z,75.4438
2023-04-30T09:10:07.836Z,75.5862
2023-04-30T09:11:08.624Z,75.6833
2023-04-30T09:12:09.003Z,75.3637
2023-04-30T09:13:09.649Z,75.1483
2023-04-30T09:14:10.551Z,75.1641
2023-04-30T09:15:11.161Z,75.1649
2023-04-30T09:16:11.856Z,74.9919
2023-04-30T09:17:11.853Z,74.6632
2023-04-30T09:18:12.661Z,74.4669
2023-04-30T09:20:12.982Z,74.5044
2023-04-30T09:21:13.668Z,74.4068
2023-04-30T09:22:14.547Z,74.7041
2023-04-30T09:23:15.036Z,74.4366
2023-04-30T09:24:18.623Z,74.1579
2023-04-30T09:25:37.731Z,73.7928
2023-04-30T09:26:17.031Z,74.1880
2023-04-30T09:27:18.141Z,74.0876
2023-04-30T09:28:19.657Z,74.5517
2023-04-30T09:29:24.884Z,74.5122
2023-04-30T09:30:20.308Z,73.9868
2023-04-30T09:31:21.599Z,73.1233
2023-04-30T09:32:22.246Z,73.2087
2023-04-30T09:33:22.399Z,72.9623
2023-04-30T09:34:23.285Z,72.6668
2023-04-30T09:35:25.003Z,72.8510
2023-04-30T09:36:25.702Z,73.1363
2023-04-30T09:37:27.151Z,73.1478
2023-04-30T09:39:28.076Z,73.1181
2023-04-30T09:40:28.264Z,73.0806
2023-04-30T09:41:28.661Z,72.9577
2023-04-30T09:42:29.287Z,72.6729
2023-04-30T09:43:30.262Z,71.7584
2023-04-30T09:44:30.674Z,71.5826
2023-04-30T09:45:32.705Z,71.4407
2023-04-30T09:46:32.487Z,70.1288
2023-04-30T09:47:33.390Z,71.5978
2023-04-30T09:50:35.006Z,70.4482
2023-04-30T09:51:35.570Z,70.4408
2023-04-30T09:52:36.507Z,70.2394
2023-04-30T09:53:37.134Z,69.7590
2023-04-30T09:54:37.965Z,69.5231
2023-04-30T09:55:37.926Z,70.1208
2023-04-30T09:56:38.010Z,69.6130
2023-04-30T09:57:38.084Z,70.3519
2023-04-30T09:58:39.444Z,70.8447
2023-04-30T09:59:39.027Z,70.7246
2023-04-30T10:00:40.154Z,70.3209
2023-04-30T10:01:41.641Z,70.7927
2023-04-30T10:02:43.014Z,70.2792
2023-04-30T10:04:43.007Z,69.8349
2023-04-30T10:05:44.337Z,69.6324
2023-04-30T10:06:58.876Z,70.2146
2023-04-30T10:07:59.117Z,69.8359
2023-04-30T10:09:00.707Z,69.7531
2023-04-30T10:10:00.837Z,69.5110
2023-04-30T10:11:01.502Z,68.7244
2023-04-30T10:12:01.966Z,69.6910
2023-04-30T10:13:02.708Z,69.3863
2023-04-30T10:14:03.020Z,68.6648
2023-04-30T10:15:03.886Z,68.3227
2023-04-30T10:16:04.503Z,68.5025
2023-04-30T10:17:05.241Z,68.2297
2023-04-30T10:18:06.333Z,68.2528
2023-04-30T10:19:07.266Z,67.6604
2023-04-30T10:20:08.512Z,68.3994
2023-04-30T10:21:09.301Z,67.8884
2023-04-30T10:22:09.885Z,66.9346
2023-04-30T10:23:10.244Z,66.3805
2023-04-30T10:24:10.940Z,65.7459
2023-04-30T10:25:11.690Z,65.8376
2023-04-30T10:26:12.233Z,65.3813
2023-04-30T10:27:13.833Z,64.6710
2023-04-30T10:28:13.429Z,64.5673
2023-04-30T10:29:14.621Z,64.7794
2023-04-30T10:30:15.165Z,63.6004
2023-04-30T10:31:15.653Z,62.4878
2023-04-30T10:32:16.821Z,63.2941
2023-04-30T10:33:18.700Z,63.6266
2023-04-30T10:34:18.707Z,63.2709
2023-04-30T10:35:19.089Z,63.9814
2023-04-30T10:36:19.751Z,63.6198
2023-04-30T10:37:20.179Z,64.4751
2023-04-30T10:38:20.701Z,63.2843
2023-04-30T10:39:37.153Z,63.7655
2023-04-30T10:40:37.263Z,64.0609
2023-04-30T10:41:37.770Z,63.2619
2023-04-30T10:42:38.425Z,61.9000
2023-04-30T10:43:40.196Z,62.5739
2023-04-30T10:44:39.162Z,62.8477
2023-04-30T10:45:40.401Z,62.6303
2023-04-30T10:46:41.721Z,62.0848
2023-04-30T10:47:42.122Z,62.2167
2023-04-30T10:48:43.114Z,61.4749
2023-04-30T10:49:43.750Z,61.8522
2023-04-30T10:50:46.173Z,61.1851
2023-04-30T10:51:45.702Z,59.9169
2023-04-30T10:53:01.867Z,61.5466
2023-04-30T10:53:47.796Z,61.3645
2023-04-30T10:54:48.506Z,61.3638
2023-04-30T10:55:49.794Z,60.3990
2023-04-30T10:56:48.714Z,60.8979
2023-04-30T10:57:49.384Z,60.7442
2023-04-30T10:58:50.039Z,60.7155
2023-04-30T10:59:50.468Z,60.2801
2023-04-30T11:00:51.648Z,61.2064
2023-04-30T11:01:52.698Z,61.1366
2023-04-30T11:02:53.740Z,61.1103
2023-04-30T11:03:54.595Z,60.6364
2023-04-30T11:04:55.594Z,60.8055
2023-04-30T11:05:56.422Z,60.0848
2023-04-30T11:06:57.527Z,60.7556
2023-04-30T11:07:58.188Z,60.9216
2023-04-30T11:08:59.188Z,61.0685
2023-04-30T11:09:59.458Z,61.6324
2023-04-30T11:11:00.159Z,60.6712
2023-04-30T11:12:01.126Z,60.9811
2023-04-30T11:13:03.651Z,60.8758
2023-04-30T11:14:04.101Z,59.2239
2023-04-30T11:15:04.810Z,60.2246
2023-04-30T11:16:05.155Z,59.0915
2023-04-30T11:17:05.411Z,59.3729
2023-04-30T11:18:05.799Z,59.5895
2023-04-30T11:19:06.195Z,59.0140
2023-04-30T11:20:06.995Z,59.9848
2023-04-30T11:21:07.429Z,58.3004
2023-04-30T11:22:08.063Z,58.5177
2023-04-30T11:23:08.725Z,59.0270
2023-04-30T11:24:10.239Z,58.5822
2023-04-30T11:25:11.025Z,57.9402
2023-04-30T11:26:11.941Z,58.2624
2023-04-30T11:27:12.876Z,57.4273
2023-04-30T11:28:14.265Z,58.1037
2023-04-30T11:29:15.554Z,58.3771
2023-04-30T11:30:15.364Z,58.1976
2023-04-30T11:31:15.757Z,58.6378
2023-04-30T11:32:16.103Z,57.8473
2023-04-30T11:33:17.179Z,57.2216
2023-04-30T11:34:17.871Z,58.5104
2023-04-30T11:35:18.750Z,58.2916
2023-04-30T11:36:19.245Z,58.1944
2023-04-30T11:37:20.498Z,57.2511
2023-04-30T11:38:21.530Z,57.1734
2023-04-30T11:39:22.541Z,56.6762
2023-04-30T11:40:23.506Z,57.5131
2023-04-30T11:41:24.054Z,57.8346
2023-04-30T11:42:24.784Z,55.8682
2023-04-30T11:43:25.671Z,55.8247
2023-04-30T11:44:26.152Z,56.6117
2023-04-30T11:45:26.832Z,56.4038
2023-04-30T11:46:27.462Z,56.4937
2023-04-30T11:47:28.322Z,56.7485
2023-04-30T11:48:30.146Z,57.0945
2023-04-30T11:49:29.511Z,57.2094
2023-04-30T11:50:29.896Z,57.1100
2023-04-30T11:51:30.230Z,58.1135
2023-04-30T11:52:30.636Z,58.1103
2023-04-30T11:53:31.404Z,57.5047
2023-04-30T11:54:31.924Z,57.6730
2023-04-30T11:55:32.686Z,57.5296
2023-04-30T11:56:33.780Z,58.0717
2023-04-30T11:57:34.309Z,57.5090
2023-04-30T11:58:35.028Z,56.9540
2023-04-30T11:59:35.741Z,56.6196
2023-04-30T12:00:36.573Z,57.7100
2023-04-30T12:01:37.280Z,58.0716
2023-04-30T12:02:38.371Z,58.3807
2023-04-30T12:03:39.436Z,57.7749
2023-04-30T12:04:40.802Z,57.7405
2023-04-30T12:05:41.363Z,58.6638
2023-04-30T12:06:42.218Z,58.1868
2023-04-30T12:07:42.732Z,58.2735
2023-04-30T12:08:43.445Z,57.8312
2023-04-30T12:09:44.222Z,58.3659
2023-04-30T12:10:45.206Z,59.2647
2023-04-30T12:11:45.835Z,58.6471
2023-04-30T12:12:46.752Z,59.9686
2023-04-30T12:13:47.338Z,59.3312
2023-04-30T12:14:47.990Z,58.7500
2023-04-30T12:15:49.473Z,59.2005
2023-04-30T12:16:50.479Z,58.2245
2023-04-30T12:18:52.663Z,58.5877
2023-04-30T12:19:51.714Z,56.8829
2023-04-30T12:20:52.413Z,56.8676
2023-04-30T12:21:52.502Z,56.8143
2023-04-30T12:22:53.426Z,56.9049
2023-04-30T12:23:54.593Z,57.5059
2023-04-30T12:24:55.018Z,57.5791
2023-04-30T12:25:55.541Z,57.8537
2023-04-30T12:26:55.812Z,58.1353
2023-04-30T12:27:57.030Z,58.9045
2023-04-30T12:28:58.116Z,58.0592
2023-04-30T12:29:58.969Z,57.4998
2023-04-30T12:31:00.160Z,56.9198
2023-04-30T12:32:00.214Z,57.8763
2023-04-30T12:33:00.649Z,58.5345
2023-04-30T12:34:02.047Z,57.9185
2023-04-30T12:36:02.141Z,58.0237
2023-04-30T12:37:02.992Z,59.0763
2023-04-30T12:38:03.453Z,58.8050
2023-04-30T12:39:04.407Z,58.3259
2023-04-30T12:40:04.573Z,58.9184
2023-04-30T12:41:16.326Z,58.9804
2023-04-30T12:42:16.737Z,58.7248
2023-04-30T12:43:17.450Z,58.9702
2023-04-30T12:44:17.862Z,59.6920
2023-04-30T12:45:18.357Z,59.1884
2023-04-30T12:46:19.268Z,58.6272
2023-04-30T12:47:19.887Z,58.5399
2023-04-30T12:48:20.165Z,59.5498
2023-04-30T12:49:20.734Z,58.9126
2023-04-30T12:50:21.504Z,59.2147
2023-04-30T12:51:22.174Z,58.9780